createdAt,value
2023-04-29T00:01:59.293Z,0.95
2023-04-29T00:04:01.895Z,1.05
2023-04-29T00:08:06.732Z,0.68
2023-04-29T00:10:09.111Z,0.80
2023-04-29T00:12:11.535Z,0.70
2023-04-29T00:14:13.712Z,0.80
2023-04-29T00:16:15.886Z,3.08
2023-04-29T00:18:18.066Z,0.63
2023-04-29T00:20:20.316Z,1.65
2023-04-29T00:22:22.865Z,0.80
2023-04-29T00:24:25.152Z,1.05
2023-04-29T00:26:27.447Z,1.70
2023-04-29T00:28:29.729Z,0.70
2023-04-29T00:30:35.636Z,0.60
2023-04-29T00:32:37.762Z,0.80
2023-04-29T00:34:39.966Z,0.88
2023-04-29T00:36:42.266Z,1.20
2023-04-29T00:38:44.475Z,0.80
2023-04-29T00:40:46.768Z,0.80
2023-04-29T00:42:49.022Z,1.30
2023-04-29T00:44:51.239Z,1.95
2023-04-29T00:46:53.617Z,0.60
2023-04-29T00:48:55.809Z,1.00
2023-04-29T00:50:58.150Z,1.23
2023-04-29T00:53:00.870Z,3.40
2023-04-29T00:57:06.730Z,0.90
2023-04-29T00:59:10.285Z,1.00
2023-04-29T01:01:12.901Z,2.25
2023-04-29T01:03:15.347Z,1.02
2023-04-29T01:05:18.015Z,1.77
2023-04-29T01:07:20.235Z,1.23
2023-04-29T01:09:25.195Z,2.25
2023-04-29T01:11:33.582Z,0.88
2023-04-29T01:13:50.655Z,1.17
2023-04-29T01:16:03.578Z,0.77
2023-04-29T01:20:08.099Z,0.80
2023-04-29T01:22:10.275Z,2.35
2023-04-29T01:24:12.421Z,1.08
2023-04-29T01:26:14.777Z,1.00
2023-04-29T01:28:23.077Z,2.03
2023-04-29T01:30:25.294Z,1.00
2023-04-29T01:32:36.511Z,1.17
2023-04-29T01:34:56.008Z,1.00
2023-04-29T01:37:02.969Z,1.20
2023-04-29T01:39:21.138Z,1.17
2023-04-29T01:41:43.604Z,2.03
2023-04-29T01:43:48.754Z,2.00
2023-04-29T01:45:51.613Z,1.60
2023-04-29T01:47:55.963Z,1.80
2023-04-29T01:49:58.181Z,3.08
2023-04-29T01:52:00.340Z,1.70
2023-04-29T01:54:02.708Z,2.85
2023-04-29T01:56:04.960Z,2.10
2023-04-29T01:58:07.121Z,2.00
2023-04-29T02:00:09.521Z,2.30
2023-04-29T02:02:11.723Z,1.98
2023-04-29T02:04:13.878Z,2.47
2023-04-29T02:06:15.998Z,3.63
2023-04-29T02:08:18.575Z,2.53
2023-04-29T02:10:20.897Z,2.08
2023-04-29T02:12:23.356Z,2.65
2023-04-29T02:14:25.657Z,3.25
2023-04-29T02:16:27.824Z,3.10
2023-04-29T02:18:29.988Z,2.55
2023-04-29T02:20:32.120Z,2.53
2023-04-29T02:22:34.303Z,2.10
2023-04-29T02:24:36.735Z,2.50
2023-04-29T02:26:38.906Z,2.47
2023-04-29T02:28:41.088Z,2.50
2023-04-29T02:30:43.234Z,3.00
2023-04-29T02:32:45.438Z,2.80
2023-04-29T02:34:47.716Z,2.40
2023-04-29T02:36:49.880Z,2.20
2023-04-29T02:38:54.047Z,2.25
2023-04-29T02:40:56.237Z,2.20
2023-04-29T02:42:58.384Z,1.60
2023-04-29T02:45:01.178Z,1.90
2023-04-29T02:49:05.961Z,2.72
2023-04-29T02:51:08.134Z,3.45
2023-04-29T02:53:10.359Z,1.60
2023-04-29T02:55:12.508Z,2.03
2023-04-29T02:57:14.951Z,3.42
2023-04-29T02:59:17.097Z,2.45
2023-04-29T03:01:19.278Z,2.38
2023-04-29T03:03:21.582Z,3.38
2023-04-29T03:05:23.864Z,2.58
2023-04-29T03:07:26.115Z,2.42
2023-04-29T03:09:28.333Z,2.30
2023-04-29T03:11:30.638Z,2.88
2023-04-29T03:13:32.874Z,2.10
2023-04-29T03:15:35.040Z,2.85
2023-04-29T03:17:37.311Z,2.55
2023-04-29T03:19:39.472Z,2.70
2023-04-29T03:21:41.705Z,2.83
2023-04-29T03:23:44.853Z,2.33
2023-04-29T03:25:47.064Z,2.42
2023-04-29T03:27:49.285Z,2.10
2023-04-29T03:29:51.562Z,1.95
2023-04-29T03:31:54.352Z,1.98
2023-04-29T03:33:56.511Z,2.20
2023-04-29T03:35:58.693Z,2.47
2023-04-29T03:38:00.970Z,2.63
2023-04-29T03:40:03.163Z,2.78
2023-04-29T03:42:05.326Z,2.85
2023-04-29T03:44:07.493Z,2.10
2023-04-29T03:46:09.681Z,2.20
2023-04-29T03:48:12.484Z,2.58
2023-04-29T03:50:14.650Z,2.45
2023-04-29T03:52:16.881Z,2.08
2023-04-29T03:54:19.259Z,2.22
2023-04-29T03:56:22.976Z,3.38
2023-04-29T03:58:25.233Z,2.28
2023-04-29T04:00:31.042Z,3.38
2023-04-29T04:02:33.393Z,4.75
2023-04-29T04:04:35.849Z,4.25
2023-04-29T04:06:39.175Z,2.60
2023-04-29T04:08:41.378Z,3.35
2023-04-29T04:10:44.314Z,3.08
2023-04-29T04:12:47.597Z,2.50
2023-04-29T04:14:49.789Z,2.47
2023-04-29T04:16:51.969Z,3.70
2023-04-29T04:18:54.075Z,2.28
2023-04-29T04:20:56.245Z,2.50
2023-04-29T04:22:58.537Z,2.35
2023-04-29T04:25:00.704Z,2.28
2023-04-29T04:27:02.867Z,2.20
2023-04-29T04:29:05.120Z,2.20
2023-04-29T04:31:08.089Z,2.60
2023-04-29T04:33:11.433Z,2.50
2023-04-29T04:35:13.595Z,2.15
2023-04-29T04:37:16.279Z,3.53
2023-04-29T04:41:20.665Z,3.35
2023-04-29T04:43:22.852Z,2.90
2023-04-29T04:45:25.088Z,2.55
2023-04-29T04:47:27.286Z,2.30
2023-04-29T04:49:29.463Z,3.78
2023-04-29T04:51:31.624Z,2.78
2023-04-29T04:53:33.776Z,2.33
2023-04-29T04:55:36.678Z,4.07
2023-04-29T04:57:38.863Z,4.15
2023-04-29T04:59:41.173Z,3.00
2023-04-29T05:01:43.337Z,3.80
2023-04-29T05:03:45.653Z,2.63
2023-04-29T05:05:53.597Z,2.40
2023-04-29T05:07:55.842Z,2.95
2023-04-29T05:09:58.410Z,2.83
2023-04-29T05:12:01.407Z,3.53
2023-04-29T05:14:03.550Z,2.40
2023-04-29T05:16:06.669Z,2.50
2023-04-29T05:18:08.934Z,2.63
2023-04-29T05:20:11.234Z,3.10
2023-04-29T05:22:13.413Z,2.72
2023-04-29T05:24:15.735Z,2.55
2023-04-29T05:26:17.919Z,2.60
2023-04-29T05:28:20.191Z,2.60
2023-04-29T05:30:22.384Z,2.97
2023-04-29T05:32:24.609Z,3.13
2023-04-29T05:34:26.789Z,4.13
2023-04-29T05:36:28.983Z,2.58
2023-04-29T05:38:31.172Z,3.10
2023-04-29T05:40:33.394Z,3.42
2023-04-29T05:42:35.608Z,6.18
2023-04-29T05:44:37.800Z,3.65
2023-04-29T05:46:40.349Z,2.85
2023-04-29T05:48:42.557Z,3.58
2023-04-29T05:50:45.690Z,3.70
2023-04-29T05:52:47.849Z,3.25
2023-04-29T05:54:50.105Z,3.10
2023-04-29T05:56:52.403Z,4.10
2023-04-29T05:58:54.603Z,2.40
2023-04-29T06:00:58.133Z,2.30
2023-04-29T06:03:02.233Z,3.05
2023-04-29T06:05:04.706Z,2.20
2023-04-29T06:07:09.088Z,3.72
2023-04-29T06:09:23.954Z,3.30
2023-04-29T06:11:29.535Z,3.63
2023-04-29T06:13:32.776Z,2.58
2023-04-29T06:15:34.982Z,3.00
2023-04-29T06:17:37.860Z,4.03
2023-04-29T06:19:40.057Z,2.33
2023-04-29T06:21:42.206Z,4.03
2023-04-29T06:23:44.361Z,1.98
2023-04-29T06:25:46.709Z,2.67
2023-04-29T06:27:49.351Z,2.55
2023-04-29T06:29:51.689Z,2.80
2023-04-29T06:31:54.349Z,3.92
2023-04-29T06:33:56.602Z,2.55
2023-04-29T06:35:58.787Z,2.53
2023-04-29T06:38:01.087Z,5.20
2023-04-29T06:40:03.634Z,3.65
2023-04-29T06:42:05.816Z,2.70
2023-04-29T06:44:08.092Z,4.70
2023-04-29T06:46:10.744Z,3.45
2023-04-29T06:48:13.137Z,4.38
2023-04-29T06:50:15.363Z,3.75
2023-04-29T06:52:17.498Z,3.00
2023-04-29T06:54:19.658Z,4.38
2023-04-29T06:56:21.875Z,3.55
2023-04-29T06:58:24.077Z,4.53
2023-04-29T07:00:26.278Z,3.38
2023-04-29T07:02:28.566Z,4.13
2023-04-29T07:04:31.034Z,3.85
2023-04-29T07:06:33.256Z,4.57
2023-04-29T07:08:35.396Z,3.70
2023-04-29T07:10:37.508Z,4.20
2023-04-29T07:12:39.742Z,4.10
2023-04-29T07:14:41.977Z,3.65
2023-04-29T07:16:44.292Z,3.63
2023-04-29T07:18:46.521Z,3.65
2023-04-29T07:20:49.680Z,4.60
2023-04-29T07:22:51.848Z,3.22
2023-04-29T07:24:55.416Z,4.60
2023-04-29T07:26:57.747Z,4.65
2023-04-29T07:28:59.915Z,3.78
2023-04-29T07:31:02.095Z,4.70
2023-04-29T07:33:04.647Z,3.33
2023-04-29T07:35:06.935Z,4.15
2023-04-29T07:37:09.819Z,4.38
2023-04-29T07:39:14.950Z,5.25
2023-04-29T07:41:17.098Z,4.55
2023-04-29T07:43:19.273Z,4.53
2023-04-29T07:45:21.464Z,4.05
2023-04-29T07:47:23.660Z,5.25
2023-04-29T07:49:26.289Z,3.65
2023-04-29T07:51:29.206Z,10.05
2023-04-29T07:53:31.473Z,3.58
2023-04-29T07:55:33.618Z,4.90
2023-04-29T07:57:36.100Z,4.75
2023-04-29T07:59:38.214Z,4.38
2023-04-29T08:01:41.475Z,4.25
2023-04-29T08:03:43.823Z,4.40
2023-04-29T08:05:46.239Z,3.55
2023-04-29T08:07:51.933Z,4.80
2023-04-29T08:09:54.122Z,3.75
2023-04-29T08:11:56.281Z,5.10
2023-04-29T08:14:00.117Z,5.07
2023-04-29T08:16:02.363Z,3.50
2023-04-29T08:18:04.619Z,3.67
2023-04-29T08:20:08.489Z,4.30
2023-04-29T08:22:12.307Z,3.70
2023-04-29T08:24:14.556Z,3.75
2023-04-29T08:26:16.698Z,4.13
2023-04-29T08:28:19.683Z,3.88
2023-04-29T08:30:21.984Z,3.05
2023-04-29T08:32:24.374Z,3.97
2023-04-29T08:34:26.865Z,4.88
2023-04-29T08:36:30.097Z,3.50
2023-04-29T08:38:32.405Z,3.35
2023-04-29T08:40:35.610Z,3.47
2023-04-29T08:42:38.272Z,4.85
2023-04-29T08:44:41.944Z,4.63
2023-04-29T08:46:47.268Z,2.60
2023-04-29T08:48:49.846Z,2.13
2023-04-29T08:50:52.156Z,5.22
2023-04-29T08:52:54.968Z,2.33
2023-04-29T08:54:57.725Z,3.53
2023-04-29T08:59:02.945Z,2.10
2023-04-29T09:01:08.518Z,3.75
2023-04-29T09:03:29.816Z,5.00
2023-04-29T09:05:36.449Z,4.20
2023-04-29T09:07:42.637Z,3.03
2023-04-29T09:09:44.895Z,3.15
2023-04-29T09:11:47.428Z,3.10
2023-04-29T09:13:49.549Z,2.63
2023-04-29T09:15:51.870Z,1.83
2023-04-29T09:17:54.049Z,1.70
2023-04-29T09:19:57.178Z,2.15
2023-04-29T09:21:59.845Z,1.42
2023-04-29T09:24:03.120Z,1.83
2023-04-29T09:26:05.417Z,1.30
2023-04-29T09:28:15.881Z,1.75
2023-04-29T09:30:19.539Z,1.73
2023-04-29T09:32:21.908Z,1.90
2023-04-29T09:34:35.752Z,1.80
2023-04-29T09:36:46.763Z,2.25
2023-04-29T09:38:55.825Z,2.22
2023-04-29T09:40:59.902Z,1.92
2023-04-29T09:43:03.949Z,2.10
2023-04-29T09:45:06.304Z,1.60
2023-04-29T09:47:09.915Z,3.20
2023-04-29T09:49:25.263Z,1.92
2023-04-29T09:51:27.485Z,3.92
2023-04-29T09:53:31.210Z,1.90
2023-04-29T09:55:33.457Z,1.52
2023-04-29T09:57:44.360Z,2.08
2023-04-29T09:59:47.369Z,1.65
2023-04-29T10:01:50.675Z,2.00
2023-04-29T10:03:54.081Z,2.15
2023-04-29T10:05:57.367Z,2.38
2023-04-29T10:08:00.459Z,2.13
2023-04-29T10:10:03.731Z,1.70
2023-04-29T10:12:07.881Z,1.63
2023-04-29T10:14:14.423Z,1.50
2023-04-29T10:16:24.173Z,1.58
2023-04-29T10:18:39.720Z,2.60
2023-04-29T10:20:47.450Z,1.63
2023-04-29T10:22:50.267Z,2.08
2023-04-29T10:26:56.809Z,3.47
2023-04-29T10:29:00.184Z,2.58
2023-04-29T10:31:06.759Z,3.63
2023-04-29T10:33:11.906Z,1.42
2023-04-29T10:35:14.942Z,1.80
2023-04-29T10:37:17.714Z,2.03
2023-04-29T10:41:28.398Z,1.15
2023-04-29T10:43:31.754Z,1.85
2023-04-29T10:45:37.737Z,1.60
2023-04-29T10:47:39.996Z,1.48
2023-04-29T10:50:02.175Z,3.05
2023-04-29T10:52:04.775Z,3.47
2023-04-29T10:54:06.925Z,3.60
2023-04-29T10:56:13.136Z,5.68
2023-04-29T10:58:33.927Z,2.30
2023-04-29T11:00:38.872Z,3.42
2023-04-29T11:02:42.024Z,2.40
2023-04-29T11:05:04.313Z,2.45
2023-04-29T11:07:06.786Z,2.85
2023-04-29T11:09:29.270Z,4.15
2023-04-29T11:11:46.656Z,2.13
2023-04-29T11:13:49.012Z,2.00
2023-04-29T11:15:52.506Z,3.72
2023-04-29T11:17:59.092Z,2.22
2023-04-29T11:20:01.618Z,1.92
2023-04-29T11:22:11.859Z,3.47
2023-04-29T11:24:16.028Z,3.03
2023-04-29T11:26:21.695Z,1.95
2023-04-29T11:28:24.832Z,3.58
2023-04-29T11:30:29.415Z,2.22
2023-04-29T11:32:32.732Z,3.90
2023-04-29T11:34:34.994Z,2.83
2023-04-29T11:36:37.254Z,3.28
2023-04-29T11:38:42.418Z,2.60
2023-04-29T11:40:53.528Z,2.50
2023-04-29T11:42:55.774Z,3.47
2023-04-29T11:45:00.364Z,1.50
2023-04-29T11:47:06.432Z,1.77
2023-04-29T11:49:08.719Z,1.30
2023-04-29T11:51:11.040Z,1.48
2023-04-29T11:53:13.319Z,1.77
2023-04-29T11:55:15.983Z,2.53
2023-04-29T11:59:21.262Z,1.63
2023-04-29T12:01:23.813Z,2.25
2023-04-29T12:03:26.392Z,3.20
2023-04-29T12:07:30.837Z,2.42
2023-04-29T12:09:43.194Z,1.65
2023-04-29T12:11:47.017Z,5.22
2023-04-29T12:13:49.304Z,1.55
2023-04-29T12:15:52.392Z,1.42
2023-04-29T12:17:54.761Z,1.38
2023-04-29T12:19:57.463Z,1.30
2023-04-29T12:22:00.075Z,2.70
2023-04-29T12:24:03.632Z,1.40
2023-04-29T12:26:05.898Z,1.73
2023-04-29T12:28:14.412Z,1.20
2023-04-29T12:30:16.769Z,1.17
2023-04-29T12:32:19.210Z,1.30
2023-04-29T12:34:29.576Z,2.40
2023-04-29T12:36:32.873Z,1.08
2023-04-29T12:38:35.041Z,1.92
2023-04-29T12:40:37.215Z,1.15
2023-04-29T12:42:40.580Z,1.60
2023-04-29T12:44:42.989Z,2.53
2023-04-29T12:46:46.598Z,1.95
2023-04-29T12:48:49.045Z,1.10
2023-04-29T12:50:52.357Z,2.22
2023-04-29T12:52:54.447Z,1.30
2023-04-29T12:54:57.784Z,1.88
2023-04-29T12:57:00.150Z,1.35
2023-04-29T12:59:12.256Z,3.58
2023-04-29T13:01:17.710Z,1.57
2023-04-29T13:03:22.277Z,1.55
2023-04-29T13:05:24.944Z,5.63
2023-04-29T13:07:27.110Z,1.02
2023-04-29T13:09:30.366Z,1.20
2023-04-29T13:11:34.689Z,2.17
2023-04-29T13:13:37.098Z,2.40
2023-04-29T13:15:39.313Z,3.42
2023-04-29T13:17:41.643Z,1.27
2023-04-29T13:19:51.596Z,1.60
2023-04-29T13:21:54.153Z,1.20
2023-04-29T13:23:56.331Z,1.73
2023-04-29T13:25:58.578Z,1.60
2023-04-29T13:28:00.695Z,1.95
2023-04-29T13:30:03.098Z,1.48
2023-04-29T13:32:05.706Z,0.93
2023-04-29T13:36:11.905Z,1.92
2023-04-29T13:38:14.301Z,2.08
2023-04-29T13:40:20.394Z,0.90
2023-04-29T13:42:26.573Z,1.45
2023-04-29T13:44:36.101Z,1.15
2023-04-29T13:46:52.223Z,2.28
2023-04-29T13:49:22.635Z,1.27
2023-04-29T13:52:01.429Z,1.42
2023-04-29T13:54:26.449Z,1.10
2023-04-29T13:56:59.501Z,0.82
2023-04-29T14:02:34.749Z,0.93
2023-04-29T14:04:37.249Z,1.50
2023-04-29T14:06:39.774Z,0.90
2023-04-29T14:08:41.963Z,1.42
2023-04-29T14:10:44.144Z,0.80
2023-04-29T14:12:46.401Z,1.20
2023-04-29T14:14:48.906Z,1.75
2023-04-29T14:16:51.098Z,1.45
2023-04-29T14:18:53.250Z,1.48
2023-04-29T14:20:55.596Z,1.25
2023-04-29T14:22:57.729Z,0.73
2023-04-29T14:24:59.852Z,1.10
2023-04-29T14:27:02.249Z,1.35
2023-04-29T14:29:04.494Z,1.20
2023-04-29T14:31:06.659Z,0.80
2023-04-29T14:33:09.131Z,1.48
2023-04-29T14:35:11.343Z,1.90
2023-04-29T14:37:13.506Z,1.95
2023-04-29T14:39:15.700Z,0.90
2023-04-29T14:41:17.872Z,0.82
2023-04-29T14:43:20.029Z,0.82
2023-04-29T14:45:22.263Z,1.13
2023-04-29T14:47:24.529Z,1.33
2023-04-29T14:49:27.446Z,0.90
2023-04-29T14:51:31.193Z,1.08
2023-04-29T14:53:33.924Z,2.33
2023-04-29T14:57:38.121Z,0.95
2023-04-29T14:59:41.615Z,2.15
2023-04-29T15:01:44.099Z,1.10
2023-04-29T15:03:46.526Z,1.88
2023-04-29T15:05:52.191Z,1.85
2023-04-29T15:07:54.492Z,1.40
2023-04-29T15:09:56.639Z,1.23
2023-04-29T15:11:58.845Z,3.25
2023-04-29T15:14:01.098Z,0.80
2023-04-29T15:16:04.174Z,1.27
2023-04-29T15:18:08.519Z,1.13
2023-04-29T15:20:11.096Z,0.88
2023-04-29T15:22:13.284Z,1.10
2023-04-29T15:24:15.807Z,1.67
2023-04-29T15:26:18.026Z,1.30
2023-04-29T15:28:20.187Z,1.02
2023-04-29T15:30:22.395Z,1.00
2023-04-29T15:32:31.349Z,0.95
2023-04-29T15:34:33.525Z,1.20
2023-04-29T15:36:35.926Z,1.33
2023-04-29T15:38:38.079Z,1.10
2023-04-29T15:40:40.287Z,0.73
2023-04-29T15:42:42.456Z,0.90
2023-04-29T15:44:44.634Z,1.45
2023-04-29T15:46:46.820Z,0.85
2023-04-29T15:48:49.133Z,0.85
2023-04-29T15:50:51.716Z,0.80
2023-04-29T15:52:55.872Z,1.20
2023-04-29T15:54:58.494Z,1.20
2023-04-29T15:57:01.217Z,1.35
2023-04-29T16:01:05.806Z,1.65
2023-04-29T16:03:08.161Z,1.90
2023-04-29T16:05:10.527Z,4.30
2023-04-29T16:07:12.687Z,2.20
2023-04-29T16:09:14.970Z,1.30
2023-04-29T16:11:17.150Z,2.38
2023-04-29T16:13:19.312Z,1.75
2023-04-29T16:15:21.665Z,1.10
2023-04-29T16:17:23.871Z,1.17
2023-04-29T16:19:26.225Z,0.80
2023-04-29T16:21:28.948Z,0.90
2023-04-29T16:25:33.401Z,1.00
2023-04-29T16:27:36.132Z,1.15
2023-04-29T16:31:42.779Z,2.85
2023-04-29T16:33:45.685Z,1.85
2023-04-29T16:37:49.904Z,1.55
2023-04-29T16:39:52.177Z,2.47
2023-04-29T16:41:54.449Z,1.40
2023-04-29T16:43:56.937Z,1.90
2023-04-29T16:45:59.110Z,1.10
2023-04-29T16:48:01.833Z,1.58
2023-04-29T16:52:06.531Z,0.85
2023-04-29T16:54:08.671Z,1.42
2023-04-29T16:56:11.138Z,1.30
2023-04-29T16:58:13.435Z,1.55
2023-04-29T17:00:15.670Z,1.20
2023-04-29T17:02:17.903Z,1.48
2023-04-29T17:04:20.154Z,1.40
2023-04-29T17:06:22.545Z,1.58
2023-04-29T17:08:25.098Z,1.60
2023-04-29T17:10:27.620Z,1.95
2023-04-29T17:12:29.744Z,2.00
2023-04-29T17:14:32.184Z,2.47
2023-04-29T17:16:34.577Z,1.58
2023-04-29T17:18:37.378Z,1.63
2023-04-29T17:22:42.115Z,1.83
2023-04-29T17:24:48.650Z,1.95
2023-04-29T17:26:51.031Z,1.95
2023-04-29T17:28:53.394Z,3.50
2023-04-29T17:30:59.689Z,1.90
2023-04-29T17:33:05.640Z,2.67
2023-04-29T17:35:08.864Z,2.35
2023-04-29T17:37:11.164Z,2.47
2023-04-29T17:39:13.998Z,2.38
2023-04-29T17:41:16.237Z,3.47
2023-04-29T17:43:18.405Z,2.40
2023-04-29T17:45:20.867Z,2.58
2023-04-29T17:47:23.402Z,2.42
2023-04-29T17:49:25.695Z,2.35
2023-04-29T17:51:33.168Z,2.58
2023-04-29T17:53:35.607Z,2.80
2023-04-29T17:55:41.576Z,3.65
2023-04-29T17:57:43.750Z,2.65
2023-04-29T17:59:46.879Z,3.17
2023-04-29T18:01:49.237Z,3.00
2023-04-29T18:03:51.476Z,2.78
2023-04-29T18:05:53.751Z,2.70
2023-04-29T18:07:55.947Z,3.03
2023-04-29T18:09:58.497Z,2.72
2023-04-29T18:14:04.946Z,2.72
2023-04-29T18:16:08.048Z,2.78
2023-04-29T18:18:10.282Z,3.58
2023-04-29T18:20:12.977Z,3.20
2023-04-29T18:22:15.575Z,4.47
2023-04-29T18:24:17.871Z,4.43
2023-04-29T18:26:20.680Z,4.75
2023-04-29T18:30:27.862Z,4.60
2023-04-29T18:32:30.107Z,4.88
2023-04-29T18:34:32.280Z,4.93
2023-04-29T18:36:34.462Z,5.45
2023-04-29T18:38:36.764Z,4.63
2023-04-29T18:40:38.935Z,4.38
2023-04-29T18:42:41.083Z,4.13
2023-04-29T18:44:43.719Z,3.85
2023-04-29T18:46:45.866Z,4.07
2023-04-29T18:48:48.103Z,4.35
2023-04-29T18:50:53.996Z,4.68
2023-04-29T18:52:56.395Z,4.60
2023-04-29T18:54:58.563Z,4.72
2023-04-29T18:57:02.546Z,4.78
2023-04-29T18:59:04.823Z,4.72
2023-04-29T19:01:07.081Z,5.80
2023-04-29T19:03:09.367Z,6.07
2023-04-29T19:05:12.946Z,6.28
2023-04-29T19:07:15.135Z,6.90
2023-04-29T19:09:17.272Z,5.55
2023-04-29T19:11:19.430Z,4.82
2023-04-29T19:13:22.118Z,7.47
2023-04-29T19:15:27.926Z,5.88
2023-04-29T19:17:30.148Z,5.43
2023-04-29T19:19:32.598Z,4.80
2023-04-29T19:21:34.896Z,4.72
2023-04-29T19:23:37.054Z,5.45
2023-04-29T19:25:39.405Z,5.82
2023-04-29T19:27:45.058Z,5.10
2023-04-29T19:29:47.234Z,5.07
2023-04-29T19:31:49.502Z,4.90
2023-04-29T19:33:52.441Z,6.38
2023-04-29T19:35:54.582Z,5.57
2023-04-29T19:37:56.811Z,6.50
2023-04-29T19:39:58.974Z,5.60
2023-04-29T19:42:01.188Z,5.90
2023-04-29T19:44:03.484Z,5.13
2023-04-29T19:46:06.711Z,5.25
2023-04-29T19:48:09.005Z,5.75
2023-04-29T19:50:11.365Z,5.47
2023-04-29T19:52:13.518Z,7.30
2023-04-29T19:54:16.840Z,6.50
2023-04-29T19:56:20.097Z,5.47
2023-04-29T19:58:22.381Z,5.35
2023-04-29T20:00:24.599Z,5.55
2023-04-29T20:02:27.188Z,6.68
2023-04-29T20:06:34.927Z,6.03
2023-04-29T20:08:37.618Z,5.97
2023-04-29T20:10:39.782Z,6.65
2023-04-29T20:12:42.075Z,5.18
2023-04-29T20:14:44.290Z,5.13
2023-04-29T20:16:46.626Z,7.18
2023-04-29T20:18:48.864Z,5.85
2023-04-29T20:20:51.223Z,6.07
2023-04-29T20:22:58.085Z,6.28
2023-04-29T20:25:00.404Z,6.80
2023-04-29T20:27:03.796Z,5.97
2023-04-29T20:29:06.408Z,5.68
2023-04-29T20:31:08.580Z,5.25
2023-04-29T20:33:10.835Z,5.43
2023-04-29T20:35:13.416Z,6.15
2023-04-29T20:37:15.986Z,6.53
2023-04-29T20:39:18.151Z,5.63
2023-04-29T20:41:20.706Z,7.45
2023-04-29T20:43:22.934Z,5.72
2023-04-29T20:45:25.163Z,8.43
2023-04-29T20:47:28.411Z,5.82
2023-04-29T20:49:30.965Z,5.57
2023-04-29T20:51:33.407Z,5.13
2023-04-29T20:53:35.642Z,6.35
2023-04-29T20:55:37.905Z,5.93
2023-04-29T20:57:40.109Z,6.70
2023-04-29T20:59:42.425Z,6.07
2023-04-29T21:01:45.567Z,5.10
2023-04-29T21:03:47.955Z,5.43
2023-04-29T21:05:54.290Z,5.53
2023-04-29T21:07:56.568Z,6.68
2023-04-29T21:09:58.716Z,4.82
2023-04-29T21:12:01.404Z,7.03
2023-04-29T21:16:05.806Z,4.95
2023-04-29T21:18:08.029Z,5.53
2023-04-29T21:20:10.370Z,5.00
2023-04-29T21:22:12.569Z,5.95
2023-04-29T21:24:14.782Z,5.28
2023-04-29T21:26:16.957Z,5.70
2023-04-29T21:28:19.099Z,5.18
2023-04-29T21:30:21.270Z,5.60
2023-04-29T21:32:24.395Z,5.05
2023-04-29T21:34:26.634Z,5.78
2023-04-29T21:36:28.851Z,5.18
2023-04-29T21:38:31.179Z,4.85
2023-04-29T21:40:33.355Z,5.50
2023-04-29T21:42:35.938Z,5.15
2023-04-29T21:44:38.673Z,6.03
2023-04-29T21:48:43.169Z,5.13
2023-04-29T21:50:45.551Z,5.80
2023-04-29T21:52:47.732Z,5.22
2023-04-29T21:54:49.839Z,5.47
2023-04-29T21:56:51.986Z,6.85
2023-04-29T21:58:54.512Z,5.03
2023-04-29T22:01:02.951Z,6.05
2023-04-29T22:03:05.912Z,5.22
2023-04-29T22:05:08.246Z,4.88
2023-04-29T22:07:10.433Z,5.45
2023-04-29T22:09:12.917Z,9.07
2023-04-29T22:11:15.533Z,6.35
2023-04-29T22:13:17.727Z,5.70
2023-04-29T22:15:28.237Z,5.18
2023-04-29T22:17:31.183Z,5.68
2023-04-29T22:19:33.378Z,6.88
2023-04-29T22:21:35.568Z,6.13
2023-04-29T22:23:37.805Z,7.32
2023-04-29T22:25:39.993Z,7.22
2023-04-29T22:27:42.146Z,6.20
2023-04-29T22:29:44.331Z,7.90
2023-04-29T22:31:46.658Z,5.53
2023-04-29T22:33:48.839Z,6.35
2023-04-29T22:35:51.017Z,6.25
2023-04-29T22:37:53.198Z,5.72
2023-04-29T22:39:56.430Z,5.75
2023-04-29T22:41:58.983Z,5.50
2023-04-29T22:44:01.145Z,6.28
2023-04-29T22:46:03.336Z,6.75
2023-04-29T22:48:06.154Z,7.22
2023-04-29T22:50:08.493Z,5.38
2023-04-29T22:52:10.711Z,5.82
2023-04-29T22:54:12.867Z,10.80
2023-04-29T22:56:15.090Z,5.90
2023-04-29T22:58:17.501Z,6.72
2023-04-29T23:00:19.747Z,5.25
2023-04-29T23:02:27.428Z,5.95
2023-04-29T23:04:29.674Z,5.13
2023-04-29T23:06:34.768Z,5.63
2023-04-29T23:08:36.961Z,5.22
2023-04-29T23:10:39.096Z,5.88
2023-04-29T23:12:41.494Z,6.22
2023-04-29T23:14:43.894Z,6.75
2023-04-29T23:16:46.055Z,6.30
2023-04-29T23:18:48.226Z,6.22
2023-04-29T23:20:51.390Z,6.07
2023-04-29T23:22:53.524Z,5.78
2023-04-29T23:24:55.712Z,5.45
2023-04-29T23:26:58.298Z,6.43
2023-04-29T23:29:00.619Z,9.35
2023-04-29T23:31:02.951Z,7.57
2023-04-29T23:33:05.198Z,6.32
2023-04-29T23:35:07.765Z,6.95
2023-04-29T23:37:09.896Z,6.93
2023-04-29T23:39:13.051Z,6.07
2023-04-29T23:41:17.576Z,6.75
2023-04-29T23:43:21.478Z,6.65
2023-04-29T23:45:23.624Z,5.68
2023-04-29T23:47:25.755Z,7.40
2023-04-29T23:49:28.595Z,9.45
2023-04-29T23:53:33.947Z,6.65
2023-04-29T23:55:36.094Z,5.72
2023-04-29T23:57:38.298Z,7.68
2023-04-29T23:59:42.428Z,7.65
